San Francisco, CA (94104)

10:41 AM PST on January 29, 2015 (GMT -0800)
Financial District | Change Station
CLOSE
Current Station
Personal Weather Station
Location: San Francisco, CA
Elevation: 100 ft
Nearby Weather Stations

Elev 100 ft 37.79 °N, 122.40 °W | Updated 20 seconds ago

Partly Cloudy
Partly Cloudy
54.7 °F
Feels Like 54.7 °F
N
0.0
Wind Variable Wind from ENE
Gusts 1.6 mph

Today
High -- | Low -- °F
--% Chance of Precip.
Yesterday
High -- | Low -- °F
Precip. -- in
7:16 AM 5:29 PM
Waxing Gibbous, 76% visible
Pressure 30.17 in
Visibility 6.0 miles
Clouds Few 20000 ft
Dew Point 49 °F
Humidity 81%
Rainfall 0.00 in
Snow Depth Not available.
UV 0.0 out of 12
Pollen 5.20 out of 12
Air Quality Not available.
Flu Activity Not available.
METAR KOAK 291753Z 17003KT 6SM HZ FEW200 12/09 A3017 RMK AO2 SLP215 T01220094 10122 20056 51005

More Conditions Fewer Conditions

Pressure 30.17 in
Visibility 6.0 miles
Clouds Few 20000 ft
Dew Point 49 °F
Humidity 81%
Rainfall 0.00 in
Snow Depth Not available.
UV 0.0 out of 12
Pollen 5.20 out of 12
Air Quality Not available.
Flu Activity Not available.
METAR KOAK 291753Z 17003KT 6SM HZ FEW200 12/09 A3017 RMK AO2 SLP215 T01220094 10122 20056 51005

More Conditions Fewer Conditions

10-Day Weather Forecast

Almanac

Astronomy

Jan. 29, 2015 Rise Set
Actual Time
Civil Twilight
Nautical Twilight
Astronomical Twilight
Moon
Length of Visible Light
Length of Day
Tomorrow will be .
, % of the Moon is Illuminated

Today's Extremes

State Highs State Lows

Community

WunderPhotos

Upload Photos

1,791,530 photos uploaded!

WunderBlogs® & News

Nearby

Air Quality

  Air Quality AQ Index Pollutant
Not available.

Snow Depth

Station Depth Elevation

Earthquake Activity

City Distance Mag. Time & Date
Minimum magnitude displayed is 2.5.

Coastal Water Temperatures

Place Temperature

Nearby Weather Stations